Time;durP1;ratioP1;P1;durP2;ratioP2;P2;SDS_P1;SDS_P2;PMS_P1;PMS_P2;Temp;Humidity;BMP_temperature;BMP_pressure;BME280_temperature;BME280_humidity;BME280_pressure;Samples;Min_cycle;Max_cycle;Signal;HPM_P1;HPM_P2
2022/08/25 00:01:12;;;;;;;25.58;10.02;;;;;;;22.11;100.00;99008.06;5113186;28;20608;-66
2022/08/25 00:03:39;;;;;;;24.83;11.05;;;;;;;22.15;100.00;99012.09;5111352;28;20191;-66
2022/08/25 00:06:08;;;;;;;17.70;10.63;;;;;;;22.17;100.00;99009.31;5111533;28;20662;-70
2022/08/25 00:08:36;;;;;;;20.98;9.88;;;;;;;22.20;100.00;99001.97;5111104;28;20198;-69
2022/08/25 00:11:05;;;;;;;22.52;10.25;;;;;;;22.21;100.00;99001.00;5111120;28;20191;-68
2022/08/25 00:13:32;;;;;;;24.50;10.10;;;;;;;22.20;100.00;99007.28;5111115;28;20206;-66
2022/08/25 00:16:00;;;;;;;13.55;8.52;;;;;;;22.22;100.00;99018.56;5110831;28;20662;-65
2022/08/25 00:18:27;;;;;;;23.05;9.75;;;;;;;22.27;100.00;99026.06;5091654;28;20255;-66
2022/08/25 00:20:54;;;;;;;26.67;9.65;;;;;;;22.30;100.00;99033.75;5091661;28;20219;-65
2022/08/25 00:23:23;;;;;;;21.92;8.93;;;;;;;22.38;100.00;99026.00;5092221;28;20195;-66
2022/08/25 00:25:50;;;;;;;19.85;9.60;;;;;;;22.43;100.00;99024.66;5092053;28;20218;-66
2022/08/25 00:28:18;;;;;;;16.35;9.57;;;;;;;22.42;100.00;99024.78;5091429;28;20662;-65
2022/08/25 00:30:45;;;;;;;20.02;9.55;;;;;;;22.44;100.00;99017.56;5091727;28;20229;-65
2022/08/25 00:33:12;;;;;;;20.15;9.43;;;;;;;22.41;100.00;99012.53;5092257;28;20230;-67
2022/08/25 00:35:41;;;;;;;19.58;8.80;;;;;;;22.37;100.00;99006.66;5092188;28;20199;-66
2022/08/25 00:38:08;;;;;;;24.38;9.02;;;;;;;22.31;100.00;99004.56;5091730;28;20195;-66
2022/08/25 00:40:38;;;;;;;19.65;8.40;;;;;;;22.40;100.00;99003.75;5091157;28;20214;-66
2022/08/25 00:43:05;;;;;;;22.23;9.32;;;;;;;22.45;100.00;99009.50;5091233;28;20244;-66
2022/08/25 00:45:33;;;;;;;18.55;8.45;;;;;;;22.48;100.00;99003.09;5091275;28;20604;-65
2022/08/25 00:48:00;;;;;;;15.80;8.07;;;;;;;22.55;100.00;99001.63;5091196;28;20198;-65
2022/08/25 00:50:28;;;;;;;16.83;8.18;;;;;;;22.59;100.00;99000.38;5091224;28;20208;-64
2022/08/25 00:52:59;;;;;;;14.65;7.70;;;;;;;22.55;100.00;98983.09;5091557;28;20562;-65
2022/08/25 00:55:30;;;;;;;15.25;7.38;;;;;;;22.56;100.00;98983.94;5090981;28;20655;-65
2022/08/25 00:58:06;;;;;;;17.30;7.68;;;;;;;22.57;100.00;98983.81;5090275;28;20196;-65
2022/08/25 01:00:36;;;;;;;18.30;8.43;;;;;;;22.57;100.00;98981.16;5090481;28;20227;-65
2022/08/25 01:03:04;;;;;;;19.00;8.18;;;;;;;22.63;100.00;98979.78;5090097;28;20699;-65
2022/08/25 01:05:31;;;;;;;18.02;7.15;;;;;;;22.60;100.00;98959.72;5090021;28;20282;-65
2022/08/25 01:08:01;;;;;;;18.73;8.38;;;;;;;22.63;100.00;98958.63;5107384;28;20263;-66
2022/08/25 01:10:31;;;;;;;19.95;7.78;;;;;;;22.62;100.00;98956.94;5110587;28;20626;-65
2022/08/25 01:13:04;;;;;;;21.38;7.93;;;;;;;22.68;100.00;98959.91;5108427;28;20190;-66
2022/08/25 01:15:32;;;;;;;20.15;8.02;;;;;;;22.73;100.00;98956.84;5110825;28;20651;-65
2022/08/25 01:17:59;;;;;;;19.40;7.15;;;;;;;22.71;100.00;98956.97;5110703;28;20245;-66
2022/08/25 01:20:29;;;;;;;20.67;7.40;;;;;;;22.71;100.00;98958.78;5110961;28;20671;-65
2022/08/25 01:22:59;;;;;;;15.02;6.97;;;;;;;22.74;100.00;98966.47;5110478;28;20208;-67
2022/08/25 01:25:35;;;;;;;19.70;7.90;;;;;;;22.78;100.00;98967.91;5110559;28;20285;-65
2022/08/25 01:28:02;;;;;;;16.90;7.95;;;;;;;22.73;100.00;98962.97;5110564;28;20200;-65
2022/08/25 01:30:29;;;;;;;13.55;7.30;;;;;;;22.76;100.00;98969.84;5110436;28;20286;-66
2022/08/25 01:32:56;;;;;;;17.30;7.57;;;;;;;22.72;100.00;98965.75;5110388;28;20202;-66
2022/08/25 01:35:23;;;;;;;19.08;7.60;;;;;;;22.79;100.00;98966.94;5110541;28;20689;-68
2022/08/25 01:37:50;;;;;;;14.50;7.05;;;;;;;22.78;100.00;98957.31;5110470;28;20202;-67
2022/08/25 01:40:19;;;;;;;19.73;8.00;;;;;;;22.73;100.00;98962.13;5112447;28;20224;-67
2022/08/25 01:42:57;;;;;;;13.75;6.93;;;;;;;22.75;100.00;98965.47;5114126;28;20190;-65
2022/08/25 01:45:24;;;;;;;19.40;7.82;;;;;;;22.77;100.00;98966.22;5114420;28;20599;-65
2022/08/25 01:47:51;;;;;;;15.60;7.00;;;;;;;22.75;100.00;98971.66;5114089;28;20281;-65
2022/08/25 01:50:18;;;;;;;18.58;8.00;;;;;;;22.69;100.00;98964.19;5114827;28;20706;-65
2022/08/25 01:52:50;;;;;;;18.00;8.07;;;;;;;22.62;100.00;98949.00;5114297;28;20717;-64
2022/08/25 01:55:19;;;;;;;17.08;8.23;;;;;;;22.64;100.00;98963.78;5114104;28;20554;-65
2022/08/25 01:57:46;;;;;;;17.30;7.47;;;;;;;22.64;100.00;98960.28;5113874;28;20207;-65
2022/08/25 02:00:15;;;;;;;18.38;7.72;;;;;;;22.62;100.00;98963.06;5113592;28;20230;-65
2022/08/25 02:02:42;;;;;;;15.77;6.97;;;;;;;22.56;100.00;98957.50;5113728;28;20281;-66
2022/08/25 02:05:10;;;;;;;12.43;6.70;;;;;;;22.49;100.00;98962.47;5113896;28;20704;-68
2022/08/25 02:07:37;;;;;;;12.25;6.75;;;;;;;22.48;100.00;98946.72;5113671;28;20195;-64
2022/08/25 02:10:06;;;;;;;14.68;7.30;;;;;;;22.51;100.00;98952.59;5113644;28;20703;-64
2022/08/25 02:12:35;;;;;;;17.30;6.50;;;;;;;22.50;100.00;98942.97;5113601;28;20289;-64
2022/08/25 02:15:03;;;;;;;11.80;6.63;;;;;;;22.48;100.00;98931.69;5113458;28;20201;-65
2022/08/25 02:17:30;;;;;;;14.18;6.60;;;;;;;22.51;100.00;98930.59;5113473;28;20281;-66
2022/08/25 02:19:57;;;;;;;15.38;6.50;;;;;;;22.52;100.00;98937.56;5113280;28;20211;-66
2022/08/25 02:22:24;;;;;;;10.50;6.60;;;;;;;22.51;100.00;98934.06;5113396;28;20194;-66
2022/08/25 02:24:51;;;;;;;10.70;6.72;;;;;;;22.49;100.00;98930.72;5113422;28;20199;-66
2022/08/25 02:27:18;;;;;;;14.23;5.95;;;;;;;22.47;100.00;98930.00;5113221;28;20226;-65
2022/08/25 02:29:47;;;;;;;9.90;5.97;;;;;;;22.37;100.00;98905.34;5113288;28;20209;-65
2022/08/25 02:32:14;;;;;;;11.25;6.45;;;;;;;22.47;100.00;98924.72;5113098;28;20199;-65
2022/08/25 02:34:41;;;;;;;16.92;6.38;;;;;;;22.50;100.00;98928.91;5113515;28;20210;-66
2022/08/25 02:37:08;;;;;;;13.10;5.88;;;;;;;22.46;100.00;98923.88;5113067;28;20251;-64
2022/08/25 02:39:35;;;;;;;13.88;6.00;;;;;;;22.45;100.00;98922.25;5113259;28;20209;-66
2022/08/25 02:42:03;;;;;;;12.18;5.65;;;;;;;22.38;100.00;98923.72;5112873;28;20309;-66
2022/08/25 02:44:30;;;;;;;12.25;6.03;;;;;;;22.39;100.00;98924.56;5113003;28;20201;-65
2022/08/25 02:46:59;;;;;;;9.13;5.80;;;;;;;22.35;100.00;98921.34;5112836;28;20199;-65
2022/08/25 02:49:26;;;;;;;9.00;5.65;;;;;;;22.41;100.00;98907.59;5113242;28;20685;-66
2022/08/25 02:51:54;;;;;;;10.90;6.10;;;;;;;22.42;100.00;98913.72;5112892;28;20585;-70
2022/08/25 02:54:22;;;;;;;13.73;5.53;;;;;;;22.41;100.00;98899.66;5112553;28;20194;-67
2022/08/25 02:56:49;;;;;;;17.45;5.90;;;;;;;22.37;100.00;98902.69;5112683;28;20206;-67
2022/08/25 02:59:16;;;;;;;15.88;5.38;;;;;;;22.39;100.00;98893.66;5112903;28;20659;-68
2022/08/25 03:01:43;;;;;;;12.98;4.82;;;;;;;22.45;100.00;98890.50;5112475;28;20229;-66
2022/08/25 03:04:12;;;;;;;16.42;5.30;;;;;;;22.42;100.00;98898.69;5112456;28;20199;-66
2022/08/25 03:06:39;;;;;;;8.13;4.78;;;;;;;22.36;100.00;98904.50;5112458;28;20199;-67
2022/08/25 03:09:07;;;;;;;6.88;5.30;;;;;;;22.31;100.00;98892.66;5112374;28;20198;-66
2022/08/25 03:11:34;;;;;;;10.80;5.25;;;;;;;22.29;100.00;98895.44;5112715;28;20194;-66
2022/08/25 03:14:00;;;;;;;10.85;5.05;;;;;;;22.28;100.00;98885.84;5112340;28;20205;-67
2022/08/25 03:16:27;;;;;;;11.75;5.07;;;;;;;22.21;100.00;98889.16;5112576;28;20221;-66
2022/08/25 03:18:54;;;;;;;8.75;5.10;;;;;;;22.19;100.00;98880.50;5112188;28;20230;-67
2022/08/25 03:21:23;;;;;;;8.63;5.03;;;;;;;22.19;100.00;98885.78;5112154;28;20218;-66
2022/08/25 03:23:50;;;;;;;11.68;5.03;;;;;;;22.22;100.00;98886.38;5112631;28;20670;-66
2022/08/25 03:29:03;;;;;;;10.30;4.53;;;;;;;22.16;100.00;98880.78;5112512;28;20347;-66
2022/08/25 03:31:31;;;;;;;16.23;5.20;;;;;;;22.11;100.00;98878.53;5112297;28;20436;-66
2022/08/25 03:33:58;;;;;;;6.78;4.60;;;;;;;22.23;100.00;98903.91;5112404;28;20210;-67
2022/08/25 03:36:28;;;;;;;9.93;4.90;;;;;;;22.26;100.00;98902.78;5112023;28;20241;-66
2022/08/25 03:38:55;;;;;;;9.65;4.90;;;;;;;22.22;100.00;98918.09;5111982;28;20277;-66
2022/08/25 03:41:24;;;;;;;5.95;4.18;;;;;;;22.23;100.00;98922.41;5111326;28;20275;-66
2022/08/25 03:43:51;;;;;;;11.48;4.72;;;;;;;22.20;100.00;98914.75;5111067;28;20190;-67
2022/08/25 03:46:20;;;;;;;9.30;4.32;;;;;;;22.17;100.00;98912.34;5111463;28;20666;-68
2022/08/25 03:48:47;;;;;;;10.50;4.95;;;;;;;22.13;100.00;98912.75;5111697;28;20233;-68
2022/08/25 03:51:19;;;;;;;6.47;4.30;;;;;;;22.08;100.00;98915.78;5111609;28;20247;-69
2022/08/25 03:53:48;;;;;;;10.20;4.53;;;;;;;22.13;100.00;98920.66;5107367;28;20193;-68
2022/08/25 03:56:15;;;;;;;8.32;4.70;;;;;;;22.04;100.00;98915.22;5105316;28;20207;-68
2022/08/25 03:58:42;;;;;;;11.18;4.32;;;;;;;22.09;100.00;98917.47;5110653;28;20201;-68
2022/08/25 04:01:09;;;;;;;10.23;4.50;;;;;;;22.14;100.00;98915.25;5111162;28;20224;-67
2022/08/25 04:03:36;;;;;;;7.97;4.32;;;;;;;22.06;100.00;98893.94;5110740;28;20199;-68
2022/08/25 04:06:03;;;;;;;8.10;5.25;;;;;;;22.23;100.00;98924.22;5111370;28;20273;-68
2022/08/25 04:08:30;;;;;;;8.90;4.43;;;;;;;22.33;100.00;98925.94;5108228;28;20194;-67
2022/08/25 04:10:59;;;;;;;8.55;4.68;;;;;;;22.42;100.00;98924.31;5111390;28;20577;-67
2022/08/25 04:13:26;;;;;;;7.13;4.20;;;;;;;22.55;100.00;98926.72;5111619;28;20290;-67
2022/08/25 04:15:53;;;;;;;10.43;4.50;;;;;;;22.54;100.00;98927.69;5111556;28;20293;-68
2022/08/25 04:18:19;;;;;;;7.60;4.85;;;;;;;22.56;100.00;98917.81;5108837;28;20218;-58
2022/08/25 04:20:49;;;;;;;9.95;4.35;;;;;;;22.66;100.00;98931.91;5109275;28;20253;-59
2022/08/25 04:23:16;;;;;;;5.85;3.83;;;;;;;22.68;100.00;98932.63;5108884;28;20675;-58
2022/08/25 04:25:43;;;;;;;10.02;4.28;;;;;;;22.75;100.00;98934.59;5109223;28;20198;-58
2022/08/25 04:28:11;;;;;;;7.07;4.15;;;;;;;22.74;100.00;98903.78;5109389;28;20297;-58
2022/08/25 04:30:42;;;;;;;8.90;4.30;;;;;;;23.12;100.00;98924.25;5110579;28;20581;-60
2022/08/25 04:33:09;;;;;;;12.50;4.43;;;;;;;23.45;100.00;98928.28;5109923;28;20194;-59
2022/08/25 04:35:36;;;;;;;8.18;4.13;;;;;;;23.84;100.00;98923.81;5109794;28;20206;-59
2022/08/25 04:38:03;;;;;;;9.35;3.60;;;;;;;24.42;100.00;98926.31;5109764;28;20621;-59
2022/08/25 04:40:30;;;;;;;6.00;4.20;;;;;;;24.82;100.00;98928.66;5109865;28;20210;-58
2022/08/25 04:42:57;;;;;;;7.15;3.80;;;;;;;25.47;100.00;98929.34;5110382;28;20222;-59
2022/08/25 04:45:25;;;;;;;10.88;4.47;;;;;;;26.06;100.00;98929.66;5110234;28;20289;-59
2022/08/25 04:47:52;;;;;;;6.88;3.40;;;;;;;26.67;100.00;98934.81;5109561;28;20199;-58
2022/08/25 04:50:19;;;;;;;5.35;3.60;;;;;;;27.36;100.00;98941.69;5109571;28;20275;-59
2022/08/25 04:52:46;;;;;;;7.70;3.92;;;;;;;27.96;100.00;98930.72;5110300;28;20203;-65
2022/08/25 04:55:13;;;;;;;7.38;4.25;;;;;;;28.41;100.00;98928.31;5110994;28;20195;-64
2022/08/25 04:57:39;;;;;;;11.48;3.47;;;;;;;28.58;98.00;98931.75;5110528;28;20194;-67
2022/08/25 05:00:08;;;;;;;6.93;3.10;;;;;;;28.98;95.68;98932.59;5111796;28;20654;-67
2022/08/25 05:02:36;;;;;;;10.90;4.78;;;;;;;29.48;94.24;98930.28;5111468;28;20223;-67
2022/08/25 05:05:03;;;;;;;10.93;5.03;;;;;;;29.75;92.18;98926.22;5111292;28;20199;-68
2022/08/25 05:07:30;;;;;;;5.70;3.45;;;;;;;30.36;88.38;98924.31;5111101;28;20581;-68
2022/08/25 05:09:57;;;;;;;12.27;8.20;;;;;;;30.38;86.26;98922.25;5110861;28;20251;-68
2022/08/25 05:12:26;;;;;;;12.48;10.75;;;;;;;30.65;84.68;98927.00;5110776;28;20240;-68
2022/08/25 05:14:53;;;;;;;8.90;4.57;;;;;;;30.92;82.45;98925.47;5110771;28;20639;-68
2022/08/25 05:17:20;;;;;;;8.75;7.53;;;;;;;30.90;82.04;98930.19;5109648;28;20231;-68
2022/08/25 05:19:48;;;;;;;6.95;3.80;;;;;;;31.07;81.55;98935.31;5110308;28;20195;-67
2022/08/25 05:22:15;;;;;;;8.98;5.63;;;;;;;31.61;79.92;98924.94;5110497;28;20222;-68
2022/08/25 05:24:42;;;;;;;4.43;4.03;;;;;;;31.89;76.23;98935.75;5110765;28;20595;-68
2022/08/25 05:27:09;;;;;;;12.77;4.20;;;;;;;32.57;72.90;98935.00;5110827;28;20201;-68
2022/08/25 05:29:36;;;;;;;10.57;4.97;;;;;;;32.80;71.75;98938.22;5110436;28;20208;-66
2022/08/25 05:32:03;;;;;;;13.77;5.30;;;;;;;33.26;70.01;98939.44;5109810;28;20200;-64
2022/08/25 05:34:30;;;;;;;9.75;4.72;;;;;;;33.22;70.39;98943.53;5110221;28;20214;-64
2022/08/25 05:37:02;;;;;;;12.10;5.38;;;;;;;33.03;69.32;98935.22;5109733;28;25064;-65
2022/08/25 05:39:31;;;;;;;9.32;4.68;;;;;;;33.45;68.17;98934.09;5110405;28;20216;-65
2022/08/25 05:41:58;;;;;;;8.77;4.43;;;;;;;33.90;66.53;98931.66;5110001;28;20289;-65
2022/08/25 05:44:25;;;;;;;8.20;4.25;;;;;;;34.03;64.96;98949.66;5110582;28;20200;-67
2022/08/25 05:46:52;;;;;;;6.40;4.50;;;;;;;34.18;64.46;98934.94;5110713;28;20255;-68
2022/08/25 05:49:19;;;;;;;12.75;5.10;;;;;;;34.65;63.26;98918.69;5110845;28;20194;-67
2022/08/25 05:51:46;;;;;;;12.77;5.53;;;;;;;35.11;61.27;98932.78;5110927;28;20729;-68
2022/08/25 05:54:14;;;;;;;7.88;5.45;;;;;;;35.54;60.07;98934.84;5110908;28;20300;-68
2022/08/25 05:56:41;;;;;;;10.07;5.57;;;;;;;35.58;58.92;98930.66;5110998;28;20662;-68
2022/08/25 05:59:09;;;;;;;10.15;5.30;;;;;;;35.68;58.68;98930.97;5110800;28;20195;-68
2022/08/25 06:04:21;;;;;;;12.30;6.65;;;;;;;34.92;60.12;98914.84;5110660;28;20198;-67
2022/08/25 06:06:52;;;;;;;7.15;6.40;;;;;;;34.62;60.92;98921.81;5110576;28;20201;-68
2022/08/25 06:09:20;;;;;;;11.10;6.75;;;;;;;34.45;61.32;98911.47;5110985;28;20206;-67
2022/08/25 06:11:47;;;;;;;19.15;7.32;;;;;;;33.81;63.19;98914.88;5110529;28;20586;-65
2022/08/25 06:14:16;;;;;;;17.02;6.88;;;;;;;34.02;63.33;98908.44;5109483;28;20201;-63
2022/08/25 06:16:43;;;;;;;9.82;7.30;;;;;;;33.74;63.33;98911.34;5108293;28;20282;-63
2022/08/25 06:19:10;;;;;;;14.73;8.10;;;;;;;34.11;62.19;98907.19;5108189;28;20448;-64
2022/08/25 06:21:39;;;;;;;14.43;8.20;;;;;;;34.31;61.88;98884.81;5108018;28;20214;-63
2022/08/25 06:24:06;;;;;;;19.20;8.15;;;;;;;34.60;61.46;98917.44;5108188;28;20194;-65
2022/08/25 06:26:35;;;;;;;15.00;7.78;;;;;;;34.72;60.94;98908.69;5111026;28;20210;-65
2022/08/25 06:29:02;;;;;;;18.08;7.90;;;;;;;34.49;61.09;98903.81;5111951;28;20229;-64
2022/08/25 06:31:29;;;;;;;17.70;7.72;;;;;;;35.03;60.17;98906.06;5111792;28;20199;-64
2022/08/25 06:33:57;;;;;;;16.65;8.43;;;;;;;35.29;59.03;98919.44;5112277;28;20289;-64
2022/08/25 06:36:24;;;;;;;14.35;7.90;;;;;;;35.48;58.84;98898.75;5113669;28;20198;-68
2022/08/25 06:38:52;;;;;;;15.98;8.15;;;;;;;34.72;60.84;98908.69;5114001;28;20200;-68
2022/08/25 06:41:19;;;;;;;17.77;8.95;;;;;;;34.57;61.23;98901.69;5113775;28;20282;-64
2022/08/25 06:43:47;;;;;;;10.73;8.07;;;;;;;35.43;59.64;98906.69;5113151;28;20201;-64
2022/08/25 06:46:17;;;;;;;17.80;8.98;;;;;;;35.66;58.61;98888.03;5113132;28;20201;-67
2022/08/25 06:48:44;;;;;;;15.18;8.80;;;;;;;35.44;58.85;98907.53;5113829;28;20201;-68
2022/08/25 06:51:13;;;;;;;14.02;8.60;;;;;;;35.27;58.95;98893.72;5113626;28;20194;-66
2022/08/25 06:53:41;;;;;;;13.77;8.18;;;;;;;35.41;58.24;98902.56;5113495;28;20195;-66
2022/08/25 06:56:08;;;;;;;16.50;8.73;;;;;;;35.87;57.41;98903.03;5113484;28;20202;-66
2022/08/25 06:58:36;;;;;;;19.52;8.73;;;;;;;36.37;55.98;98905.66;5112764;28;20194;-64
2022/08/25 07:01:12;;;;;;;20.38;9.60;;;;;;;36.67;55.27;98909.28;5112741;28;20674;-64
2022/08/25 07:03:39;;;;;;;18.17;10.48;;;;;;;36.75;54.38;98894.63;5112436;28;20222;-64
2022/08/25 07:06:07;;;;;;;25.83;9.05;;;;;;;37.41;53.63;98913.50;5112713;28;20227;-64
2022/08/25 07:08:35;;;;;;;16.02;9.15;;;;;;;38.25;50.70;98905.25;5112470;28;20204;-64
2022/08/25 07:11:05;;;;;;;17.38;9.10;;;;;;;38.26;49.90;98896.88;5111944;28;20286;-64
2022/08/25 07:13:32;;;;;;;18.50;8.77;;;;;;;38.08;50.10;98894.28;5111902;28;20194;-63
2022/08/25 07:15:59;;;;;;;16.52;8.98;;;;;;;37.49;51.38;98896.06;5111742;28;20638;-65
2022/08/25 07:18:28;;;;;;;25.02;9.15;;;;;;;37.30;51.85;98887.22;5111779;28;20217;-63
2022/08/25 07:20:55;;;;;;;21.02;10.80;;;;;;;37.52;51.65;98886.66;5113008;28;20589;-66
2022/08/25 07:23:22;;;;;;;25.13;11.18;;;;;;;37.07;52.62;98874.41;5112047;27;20213;-63
2022/08/25 07:25:50;;;;;;;19.77;9.52;;;;;;;37.52;50.84;98894.78;5111892;28;20721;-65
2022/08/25 07:28:18;;;;;;;26.27;10.32;;;;;;;37.48;50.30;98890.88;5110438;28;20190;-64
2022/08/25 07:30:45;;;;;;;28.73;11.75;;;;;;;37.78;50.45;98888.97;5110733;28;20200;-65
2022/08/25 07:33:12;;;;;;;30.90;11.30;;;;;;;37.92;49.06;98882.25;5110964;28;20194;-64
2022/08/25 07:35:39;;;;;;;25.60;10.75;;;;;;;37.68;50.17;98900.38;5111538;28;20194;-63
2022/08/25 07:38:08;;;;;;;23.48;11.52;;;;;;;38.19;49.58;98895.34;5111682;28;20286;-64
2022/08/25 07:40:37;;;;;;;27.90;11.13;;;;;;;38.37;49.19;98893.31;5111693;28;20194;-65
2022/08/25 07:43:06;;;;;;;29.88;10.60;;;;;;;39.08;47.12;98883.09;5112237;28;20232;-66
2022/08/25 07:45:36;;;;;;;27.85;10.90;;;;;;;39.14;46.33;98863.94;5112444;28;20674;-68
2022/08/25 07:48:06;;;;;;;19.27;10.60;;;;;;;38.99;46.91;98900.84;5112237;28;20194;-66
2022/08/25 07:50:34;;;;;;;21.63;9.90;;;;;;;39.06;47.43;98896.06;5112218;28;20190;-66
2022/08/25 07:53:02;;;;;;;25.08;10.93;;;;;;;39.09;46.55;98885.56;5112275;28;20256;-67
2022/08/25 07:55:30;;;;;;;16.30;10.68;;;;;;;39.16;46.88;98888.13;5112087;28;20212;-67
2022/08/25 07:57:58;;;;;;;21.20;10.00;;;;;;;39.32;46.09;98864.78;5112021;28;20201;-65
2022/08/25 08:00:28;;;;;;;23.80;10.13;;;;;;;39.63;45.08;98898.72;5112256;28;20202;-66
2022/08/25 08:02:56;;;;;;;18.10;10.13;;;;;;;40.13;44.38;98904.16;5112048;28;20309;-67
2022/08/25 08:05:24;;;;;;;22.65;10.05;;;;;;;40.44;43.58;98902.69;5112028;28;20202;-67
2022/08/25 08:07:51;;;;;;;23.15;9.88;;;;;;;40.72;42.60;98901.72;5112057;28;20285;-66
2022/08/25 08:10:20;;;;;;;23.48;10.20;;;;;;;41.38;40.88;98905.97;5112220;28;20761;-66
2022/08/25 08:12:47;;;;;;;22.35;10.13;;;;;;;41.39;40.35;98904.06;5111324;28;20186;-66
2022/08/25 08:15:14;;;;;;;21.10;10.23;;;;;;;41.60;40.29;98912.16;5111722;28;20216;-67
2022/08/25 08:17:41;;;;;;;27.40;11.02;;;;;;;41.37;39.58;98906.22;5111671;28;20233;-67
2022/08/25 08:20:10;;;;;;;33.05;11.18;;;;;;;41.37;39.60;98879.78;5112015;28;20211;-66
2022/08/25 08:22:39;;;;;;;22.33;10.82;;;;;;;41.11;40.31;98900.47;5111809;28;20218;-65
2022/08/25 08:25:08;;;;;;;31.75;10.23;;;;;;;40.64;40.68;98900.19;5111639;28;20196;-68
2022/08/25 08:27:36;;;;;;;30.50;10.60;;;;;;;40.10;40.85;98902.75;5111741;28;20280;-66
2022/08/25 08:30:04;;;;;;;22.45;10.00;;;;;;;40.62;41.64;98894.22;5111433;28;20208;-66
2022/08/25 08:32:31;;;;;;;35.88;9.93;;;;;;;40.58;40.24;98895.78;5111530;28;20186;-67
2022/08/25 08:34:59;;;;;;;20.30;9.70;;;;;;;40.66;39.52;98898.06;5111563;28;20201;-66
2022/08/25 08:37:26;;;;;;;31.48;10.13;;;;;;;40.50;39.68;98898.97;5111465;28;20198;-67
2022/08/25 08:39:53;;;;;;;27.08;9.50;;;;;;;40.70;39.58;98899.25;5111385;28;20699;-67
2022/08/25 08:42:45;;;;;;;29.08;8.80;;;;;;;41.21;39.19;98900.63;5111099;28;20699;-67
2022/08/25 08:45:37;;;;;;;30.55;8.57;;;;;;;41.51;36.85;98908.25;5111219;28;20205;-67
2022/08/25 08:48:22;;;;;;;24.95;8.60;;;;;;;41.39;36.93;98899.44;5090849;28;20205;-67
2022/08/25 08:51:01;;;;;;;35.88;9.35;;;;;;;41.65;36.62;98895.06;5110673;28;20194;-67
2022/08/25 08:53:45;;;;;;;23.90;8.52;;;;;;;41.41;36.98;98904.63;5110704;28;20585;-65
2022/08/25 08:56:16;;;;;;;37.83;9.05;;;;;;;41.43;36.83;98895.09;5110069;28;20216;-66
2022/08/25 08:58:49;;;;;;;26.65;9.55;;;;;;;41.29;37.62;98892.00;5110724;28;20580;-64
2022/08/25 09:01:24;;;;;;;25.98;9.77;;;;;;;40.70;38.58;98892.94;5110359;28;20560;-64
2022/08/25 09:03:58;;;;;;;40.08;9.85;;;;;;;40.62;38.94;98883.34;5110428;28;20705;-64
2022/08/25 09:06:31;;;;;;;42.47;10.20;;;;;;;39.66;39.84;98890.91;5110190;28;20198;-64
2022/08/25 09:09:02;;;;;;;36.53;9.75;;;;;;;39.39;40.93;98888.00;5110227;28;20227;-63
2022/08/25 09:11:44;;;;;;;24.25;9.05;;;;;;;38.68;42.16;98894.78;5110166;28;20194;-64
2022/08/25 09:14:25;;;;;;;25.40;9.75;;;;;;;38.85;41.29;98895.66;5110195;28;20190;-64
2022/08/25 09:17:01;;;;;;;29.38;9.80;;;;;;;38.63;41.38;98881.13;5110298;28;20679;-65
2022/08/25 09:19:49;;;;;;;32.92;9.73;;;;;;;38.47;41.61;98879.16;5109994;28;20239;-65
2022/08/25 09:22:31;;;;;;;38.78;8.88;;;;;;;39.18;40.81;98881.38;5110117;28;20200;-64
2022/08/25 09:25:09;;;;;;;29.05;8.60;;;;;;;39.83;38.39;98869.16;5110033;28;20299;-69
2022/08/25 09:27:43;;;;;;;29.83;8.65;;;;;;;40.66;37.09;98881.72;5110191;28;20194;-65
2022/08/25 09:30:15;;;;;;;34.38;9.43;;;;;;;41.39;36.03;98877.63;5110003;28;20190;-65
2022/08/25 09:32:46;;;;;;;38.53;9.93;;;;;;;41.77;36.21;98889.38;5110018;28;20190;-64
2022/08/25 09:35:18;;;;;;;36.33;8.70;;;;;;;41.92;34.52;98882.16;5110083;28;20194;-65
2022/08/25 09:37:56;;;;;;;37.10;9.00;;;;;;;42.13;33.65;98880.38;5089858;28;20195;-65
2022/08/25 09:40:24;;;;;;;35.00;8.48;;;;;;;42.50;32.88;98876.78;5089745;28;20204;-64
2022/08/25 09:42:53;;;;;;;29.08;8.52;;;;;;;42.06;33.43;98874.34;5089610;28;20222;-68
2022/08/25 09:45:36;;;;;;;34.17;8.38;;;;;;;41.57;33.24;98863.63;5089546;28;20202;-69
2022/08/25 09:48:21;;;;;;;46.60;8.57;;;;;;;41.59;33.52;98866.94;5090075;28;20701;-68
2022/08/25 09:50:49;;;;;;;38.70;8.63;;;;;;;42.01;32.79;98857.94;5089797;28;20567;-69
2022/08/25 09:53:17;;;;;;;31.88;8.20;;;;;;;41.65;33.61;98852.25;5089681;28;20201;-69
2022/08/25 09:55:47;;;;;;;34.75;9.07;;;;;;;41.09;34.04;98852.81;5089858;28;20277;-68
2022/08/25 09:58:19;;;;;;;43.63;8.80;;;;;;;40.77;34.75;98839.97;5089598;28;20205;-68
2022/08/25 10:01:01;;;;;;;38.58;8.35;;;;;;;39.16;36.24;98831.13;5090944;28;20206;-67
2022/08/25 10:03:28;;;;;;;36.40;9.18;;;;;;;38.97;38.63;98824.25;5093808;28;20224;-67
2022/08/25 10:06:05;;;;;;;32.55;11.25;;;;;;;40.06;36.30;98828.22;5093615;28;20194;-66
2022/08/25 10:08:36;;;;;;;56.55;14.27;;;;;;;40.43;35.51;98822.16;5093788;28;20666;-68
2022/08/25 10:11:08;;;;;;;43.53;11.60;;;;;;;40.46;35.36;98818.94;5109328;28;20230;-67
2022/08/25 10:13:42;;;;;;;38.33;12.88;;;;;;;39.94;37.53;98822.06;5113582;28;20194;-65
2022/08/25 10:16:21;;;;;;;25.58;9.40;;;;;;;39.65;36.67;98824.06;5111989;28;20220;-60
2022/08/25 10:19:08;;;;;;;38.10;8.80;;;;;;;38.66;37.81;98814.72;5110114;28;20229;-63
2022/08/25 10:21:38;;;;;;;40.88;9.45;;;;;;;37.47;40.70;98816.16;5111722;28;20681;-64
2022/08/25 10:24:07;;;;;;;41.75;12.35;;;;;;;36.88;42.06;98807.91;5112477;28;20665;-64
2022/08/25 10:26:54;;;;;;;33.25;8.25;;;;;;;35.90;43.68;98802.63;5110650;28;20239;-64
2022/08/25 10:29:36;;;;;;;35.92;8.68;;;;;;;35.07;45.67;98796.72;5114813;28;20191;-61
2022/08/25 10:32:13;;;;;;;32.70;9.48;;;;;;;34.47;48.22;98795.38;5112545;28;20229;-62
2022/08/25 10:34:47;;;;;;;35.10;10.23;;;;;;;34.12;49.92;98794.88;5113233;28;20199;-63
2022/08/25 10:37:27;;;;;;;43.03;8.48;;;;;;;33.60;48.96;98782.38;5112894;28;20602;-63
2022/08/25 10:40:03;;;;;;;48.72;8.73;;;;;;;33.26;50.18;98791.50;5113177;28;20230;-63
2022/08/25 10:42:38;;;;;;;37.70;9.70;;;;;;;33.24;49.63;98788.19;5113211;28;20212;-62
2022/08/25 10:48:27;;;;;;;32.75;8.10;;;;;;;33.03;48.59;98768.50;5112777;28;20198;-61
2022/08/25 10:51:00;;;;;;;28.48;7.72;;;;;;;33.26;48.52;98772.66;5112890;28;20289;-63
2022/08/25 10:53:34;;;;;;;42.17;8.27;;;;;;;33.54;49.49;98773.25;5112790;28;20201;-63
2022/08/25 10:56:14;;;;;;;33.05;9.07;;;;;;;33.75;47.61;98762.25;5112539;28;20203;-63
2022/08/25 10:59:16;;;;;;;33.00;8.27;;;;;;;33.80;47.99;98764.34;5112655;28;20286;-64
2022/08/25 11:02:21;;;;;;;32.78;13.90;;;;;;;33.88;47.92;98756.00;5086975;28;20194;-64
2022/08/25 11:04:55;;;;;;;43.90;10.70;;;;;;;33.91;47.45;98763.69;5088478;28;20229;-63
2022/08/25 11:07:26;;;;;;;33.67;8.63;;;;;;;33.96;48.82;98761.19;5112776;28;20594;-64
2022/08/25 11:09:58;;;;;;;34.35;8.68;;;;;;;33.58;48.66;98754.81;5112434;28;20199;-63
2022/08/25 11:12:30;;;;;;;40.53;7.75;;;;;;;33.44;47.87;98762.09;5112167;28;20647;-62
2022/08/25 11:15:00;;;;;;;39.53;9.95;;;;;;;33.46;48.03;98762.72;5111651;28;20194;-63
2022/08/25 11:17:38;;;;;;;37.47;8.10;;;;;;;33.33;47.52;98762.72;5111938;28;20199;-63
2022/08/25 11:20:12;;;;;;;33.95;7.22;;;;;;;33.11;48.49;98722.56;5112404;28;20648;-62
2022/08/25 11:22:43;;;;;;;34.85;7.32;;;;;;;33.50;48.40;98762.09;5112706;28;20206;-65
2022/08/25 11:25:17;;;;;;;35.83;8.57;;;;;;;33.58;47.75;98763.72;5112233;28;20190;-64
2022/08/25 11:27:50;;;;;;;33.65;7.93;;;;;;;33.71;46.72;98752.94;5112482;28;20669;-67
2022/08/25 11:30:18;;;;;;;38.83;8.32;;;;;;;33.70;46.70;98753.97;5112741;28;20209;-65
2022/08/25 11:32:49;;;;;;;37.28;7.30;;;;;;;33.46;46.52;98755.47;5112660;28;20588;-66
2022/08/25 11:35:20;;;;;;;32.67;6.65;;;;;;;33.15;47.20;98753.41;5111934;28;20255;-66
2022/08/25 11:38:05;;;;;;;30.05;6.43;;;;;;;33.22;46.32;98747.19;5111731;28;20230;-65
2022/08/25 11:40:54;;;;;;;37.10;6.78;;;;;;;33.31;46.99;98746.78;5110671;28;20198;-65
2022/08/25 11:43:48;;;;;;;36.78;6.97;;;;;;;33.49;46.75;98738.09;5109176;28;20220;-65